Bacolod, Philippines
Current Conditions -  °F | °C
As of 9:00 AM on Friday 21 Nov 2014 (Local Time) from RPVM Reporting Station
Broken Clouds Broken Clouds  
Wind Chill: 84°   Ceiling: 30000
Heat Index: 92°   Visibility: 6mi
Dew Point: 75°   Wind: 2mph
Humidity: 74%   Direction: NA
Pressure: 29.88"   Gusts: NA
Location:  10.63°N, 122.97°E
Report Text: RPVM 210100Z VRB02KT 9999 FEW018CB SCT100 BKN300 29/24 Q1012 RMK A2988 CB E AND S DST PCPN E AND S
Loading
Personal Weather Stations






























Interactive Weather Map New forecast layout! Learn more

10-Day Weather Forecast

Advertisements
Track Severe Weather on mobile